Time;durP1;ratioP1;P1;durP2;ratioP2;P2;SDS_P1;SDS_P2;PMS_P1;PMS_P2;Temp;Humidity;BMP_temperature;BMP_pressure;BME280_temperature;BME280_humidity;BME280_pressure;Samples;Min_cycle;Max_cycle;Signal;HPM_P1;HPM_P2
2021/07/17 00:01:34;;;;;;;0.10;0.10;;;18.30;99.90;;;;;;5031736;28;20152;-75
2021/07/17 00:04:00;;;;;;;0.10;0.10;;;17.90;99.90;;;;;;5031861;28;20029;-74
2021/07/17 00:06:26;;;;;;;0.10;0.10;;;17.80;99.90;;;;;;5031934;28;20028;-75
2021/07/17 00:08:52;;;;;;;0.10;0.10;;;17.90;99.90;;;;;;5031948;28;20100;-75
2021/07/17 00:11:18;;;;;;;0.15;0.15;;;17.70;99.90;;;;;;5031510;28;20025;-75
2021/07/17 00:13:44;;;;;;;0.10;0.10;;;17.50;99.90;;;;;;5068919;23;20047;-93
2021/07/17 00:16:10;;;;;;;0.00;0.00;;;17.40;99.90;;;;;;5020739;28;20089;-94
2021/07/17 00:18:36;;;;;;;0.10;0.10;;;17.20;99.90;;;;;;5022114;28;20056;-93
2021/07/17 00:21:02;;;;;;;0.10;0.10;;;17.20;99.90;;;;;;5021784;28;20002;-94
2021/07/17 00:23:27;;;;;;;0.20;0.10;;;17.20;99.90;;;;;;5022087;28;20006;-94
2021/07/17 00:25:55;;;;;;;0.00;0.00;;;17.20;99.90;;;;;;5025126;28;20028;-93
2021/07/17 00:28:21;;;;;;;0.10;0.10;;;17.20;99.90;;;;;;5025594;28;20010;-93
2021/07/17 00:30:47;;;;;;;0.20;0.20;;;17.30;99.90;;;;;;5025496;28;20010;-94
2021/07/17 00:33:13;;;;;;;0.20;0.20;;;17.40;99.90;;;;;;5025977;28;20070;-94
2021/07/17 00:35:39;;;;;;;0.10;0.10;;;17.30;99.90;;;;;;5025708;28;20006;-94
2021/07/17 00:38:05;;;;;;;0.20;0.20;;;17.40;99.90;;;;;;5025819;28;20014;-94
2021/07/17 00:40:33;;;;;;;0.05;0.05;;;17.30;99.90;;;;;;5025220;28;20006;-93
2021/07/17 00:42:59;;;;;;;0.10;0.10;;;17.20;99.90;;;;;;5025618;28;20010;-93
2021/07/17 00:45:25;;;;;;;0.73;0.20;;;17.20;99.90;;;;;;5025712;28;20045;-93
2021/07/17 00:47:51;;;;;;;0.10;0.10;;;17.10;99.90;;;;;;5025557;28;20017;-94
2021/07/17 00:50:19;;;;;;;0.00;0.00;;;17.10;99.90;;;;;;5025547;28;20014;-94
2021/07/17 00:52:45;;;;;;;0.00;0.00;;;17.20;99.90;;;;;;5025317;28;20073;-94
2021/07/17 00:55:11;;;;;;;0.00;0.00;;;17.30;99.90;;;;;;5025380;28;20246;-93
2021/07/17 00:57:39;;;;;;;0.10;0.10;;;17.30;99.90;;;;;;5025465;28;20013;-94
2021/07/17 01:00:11;;;;;;;0.10;0.10;;;17.50;99.90;;;;;;5025298;28;20043;-94
2021/07/17 01:02:39;;;;;;;0.70;0.70;;;17.50;99.90;;;;;;5025125;28;20036;-94
2021/07/17 01:05:07;;;;;;;0.10;0.10;;;17.30;99.90;;;;;;5025247;28;20029;-93
2021/07/17 01:07:33;;;;;;;0.05;0.05;;;17.40;99.90;;;;;;5025172;28;20017;-94
2021/07/17 01:09:59;;;;;;;0.10;0.10;;;17.50;99.90;;;;;;5025017;28;20010;-93
2021/07/17 01:12:25;;;;;;;0.03;0.03;;;17.40;99.90;;;;;;5025022;28;20014;-93
2021/07/17 01:14:51;;;;;;;0.15;0.15;;;17.30;99.90;;;;;;5024980;28;20093;-93
2021/07/17 01:17:17;;;;;;;0.10;0.10;;;17.30;99.90;;;;;;5024984;28;20032;-93
2021/07/17 01:19:42;;;;;;;0.40;0.20;;;17.20;99.90;;;;;;5025037;28;20013;-94
2021/07/17 01:22:08;;;;;;;0.20;0.20;;;17.10;99.90;;;;;;5024713;28;20002;-93
2021/07/17 01:24:34;;;;;;;0.10;0.10;;;17.30;99.90;;;;;;5024772;28;20006;-94
2021/07/17 01:27:00;;;;;;;0.05;0.05;;;17.10;99.90;;;;;;5024849;28;20079;-94
2021/07/17 01:29:26;;;;;;;0.20;0.20;;;17.10;99.90;;;;;;5024797;28;20022;-93
2021/07/17 01:31:52;;;;;;;0.10;0.10;;;17.20;99.90;;;;;;5024510;28;20102;-94
2021/07/17 01:34:18;;;;;;;0.00;0.00;;;17.20;99.90;;;;;;5024725;28;20069;-93
2021/07/17 01:36:45;;;;;;;0.57;0.25;;;17.30;99.90;;;;;;5023529;28;20001;-94
2021/07/17 01:39:11;;;;;;;0.10;0.10;;;17.40;99.90;;;;;;5024342;28;20008;-93
2021/07/17 01:41:37;;;;;;;0.00;0.00;;;17.30;99.90;;;;;;5024380;28;20006;-93
2021/07/17 01:44:03;;;;;;;0.10;0.10;;;17.10;99.90;;;;;;5024546;28;20013;-93
2021/07/17 01:46:29;;;;;;;0.00;0.00;;;17.20;99.90;;;;;;5024505;28;20082;-94
2021/07/17 01:48:55;;;;;;;0.10;0.10;;;17.10;99.90;;;;;;5024408;28;20017;-94
2021/07/17 01:51:22;;;;;;;0.10;0.10;;;17.10;99.90;;;;;;5024224;28;20010;-94
2021/07/17 01:54:08;;;;;;;0.10;0.10;;;17.20;99.90;;;;;;5024270;28;20085;-94
2021/07/17 01:56:33;;;;;;;0.10;0.10;;;17.20;99.90;;;;;;5024395;28;20021;-93
2021/07/17 01:58:59;;;;;;;1.35;0.68;;;17.30;99.90;;;;;;5024358;28;19998;-93
2021/07/17 02:01:26;;;;;;;0.10;0.10;;;17.30;99.90;;;;;;5023972;28;20021;-94
2021/07/17 02:03:53;;;;;;;0.13;0.13;;;17.30;99.90;;;;;;5024150;28;20010;-94
2021/07/17 02:06:24;;;;;;;0.10;0.10;;;17.50;99.90;;;;;;5024119;28;20006;-93
2021/07/17 02:08:50;;;;;;;0.03;0.03;;;17.40;99.90;;;;;;5024125;28;20006;-93
2021/07/17 02:11:15;;;;;;;0.08;0.08;;;17.50;99.90;;;;;;5024502;28;20037;-94
2021/07/17 02:13:41;;;;;;;0.08;0.08;;;17.50;99.90;;;;;;5024194;28;20073;-93
2021/07/17 02:16:07;;;;;;;0.10;0.10;;;17.50;99.90;;;;;;5023902;28;20033;-94
2021/07/17 02:18:34;;;;;;;0.00;0.00;;;17.60;99.90;;;;;;5023923;28;20002;-94
2021/07/17 02:21:06;;;;;;;0.00;0.00;;;17.70;99.90;;;;;;5023716;28;20038;-93
2021/07/17 02:23:36;;;;;;;0.00;0.00;;;17.70;99.90;;;;;;5023802;28;20013;-94
2021/07/17 02:26:02;;;;;;;0.00;0.00;;;17.70;99.90;;;;;;5023775;28;20009;-93
2021/07/17 02:28:28;;;;;;;0.00;0.00;;;17.80;99.90;;;;;;5023648;28;20020;-94
2021/07/17 02:30:54;;;;;;;0.00;0.00;;;17.90;99.90;;;;;;5023450;28;20010;-94
2021/07/17 02:33:19;;;;;;;0.08;0.08;;;18.00;99.90;;;;;;5023592;28;20002;-93
2021/07/17 02:35:45;;;;;;;0.00;0.00;;;17.90;99.90;;;;;;5023616;28;19993;-94
2021/07/17 02:38:13;;;;;;;0.00;0.00;;;18.00;99.90;;;;;;5023398;28;20006;-94
2021/07/17 02:40:39;;;;;;;0.05;0.05;;;17.90;99.90;;;;;;5023004;28;20013;-93
2021/07/17 02:43:05;;;;;;;0.10;0.10;;;17.90;99.90;;;;;;5023338;28;20018;-94
2021/07/17 02:45:31;;;;;;;0.08;0.08;;;17.90;99.90;;;;;;5023393;28;20006;-94
2021/07/17 02:47:57;;;;;;;0.75;0.75;;;17.80;99.90;;;;;;5023158;28;20017;-94
2021/07/17 02:50:24;;;;;;;0.00;0.00;;;17.70;99.90;;;;;;5023262;28;20038;-94
2021/07/17 02:53:04;;;;;;;0.00;0.00;;;17.60;99.90;;;;;;5068879;28;20410;-76
2021/07/17 02:55:30;;;;;;;0.08;0.08;;;17.70;99.90;;;;;;5068246;28;20488;-75
2021/07/17 02:57:55;;;;;;;0.85;0.73;;;17.70;99.90;;;;;;5067927;28;20028;-76
2021/07/17 03:00:21;;;;;;;0.00;0.00;;;17.70;99.90;;;;;;5069193;28;20430;-76
2021/07/17 03:02:47;;;;;;;0.40;0.40;;;17.50;99.90;;;;;;5068836;28;20059;-75
2021/07/17 03:05:13;;;;;;;0.00;0.00;;;17.40;99.90;;;;;;5067835;28;20540;-75
2021/07/17 03:07:38;;;;;;;0.03;0.03;;;17.40;99.90;;;;;;5067975;28;20029;-75
2021/07/17 03:10:05;;;;;;;0.03;0.03;;;17.50;99.90;;;;;;5051092;28;20024;-75
2021/07/17 03:12:31;;;;;;;0.08;0.08;;;17.50;99.90;;;;;;5050702;28;20052;-75
2021/07/17 03:14:57;;;;;;;0.88;0.38;;;17.50;99.90;;;;;;5068871;28;20021;-75
2021/07/17 03:17:22;;;;;;;0.00;0.00;;;17.50;99.90;;;;;;5069156;28;20357;-75
2021/07/17 03:19:49;;;;;;;0.10;0.10;;;17.30;99.90;;;;;;5067480;28;20021;-76
2021/07/17 03:22:14;;;;;;;0.10;0.10;;;17.10;99.90;;;;;;5067120;28;20028;-75
2021/07/17 03:24:40;;;;;;;0.00;0.00;;;17.10;99.90;;;;;;5067243;28;20392;-75
2021/07/17 03:27:06;;;;;;;0.10;0.10;;;17.10;99.90;;;;;;5067480;28;20024;-76
2021/07/17 03:29:31;;;;;;;0.00;0.00;;;17.20;99.90;;;;;;5068547;28;20048;-76
2021/07/17 03:31:57;;;;;;;0.00;0.00;;;17.30;99.90;;;;;;5067008;28;20029;-75
2021/07/17 03:34:23;;;;;;;0.00;0.00;;;17.50;99.90;;;;;;5067188;28;20020;-75
2021/07/17 03:36:49;;;;;;;0.00;0.00;;;17.70;99.90;;;;;;5067162;28;20025;-75
2021/07/17 03:39:14;;;;;;;0.00;0.00;;;17.80;99.90;;;;;;5068058;28;20099;-75
2021/07/17 03:41:40;;;;;;;0.00;0.00;;;17.80;99.90;;;;;;5068394;28;20037;-75
2021/07/17 03:44:10;;;;;;;0.00;0.00;;;17.90;99.90;;;;;;5066959;28;20037;-76
2021/07/17 03:46:35;;;;;;;0.10;0.10;;;17.90;99.90;;;;;;5066979;28;20021;-75
2021/07/17 03:49:02;;;;;;;1.85;0.68;;;18.00;99.90;;;;;;5068083;28;20035;-75
2021/07/17 03:51:27;;;;;;;0.00;0.00;;;18.00;99.90;;;;;;5066558;28;20491;-75
2021/07/17 03:53:53;;;;;;;0.00;0.00;;;17.90;99.90;;;;;;5066646;28;20123;-75
2021/07/17 03:56:21;;;;;;;0.00;0.00;;;17.80;99.90;;;;;;5068065;28;20059;-75
2021/07/17 03:58:47;;;;;;;1.00;0.38;;;17.70;99.90;;;;;;5066740;28;20031;-75
2021/07/17 04:01:13;;;;;;;0.75;0.40;;;17.60;99.90;;;;;;5067631;28;20387;-75
2021/07/17 04:03:38;;;;;;;0.00;0.00;;;17.40;99.90;;;;;;5057661;28;20032;-75
2021/07/17 04:06:04;;;;;;;0.08;0.08;;;17.40;99.90;;;;;;5053391;28;20052;-76
2021/07/17 04:08:30;;;;;;;0.10;0.10;;;17.30;99.90;;;;;;5053251;28;20024;-76
2021/07/17 04:10:56;;;;;;;0.28;0.28;;;17.40;99.90;;;;;;5054407;28;20135;-75
2021/07/17 04:13:21;;;;;;;0.05;0.05;;;17.60;99.90;;;;;;5036550;28;20066;-75
2021/07/17 04:15:47;;;;;;;0.00;0.00;;;17.50;99.90;;;;;;5036596;28;20075;-75
2021/07/17 04:18:13;;;;;;;0.00;0.00;;;17.60;99.90;;;;;;5054565;28;20042;-75
2021/07/17 04:20:38;;;;;;;0.10;0.10;;;17.80;99.90;;;;;;5054279;28;20044;-76
2021/07/17 04:23:05;;;;;;;0.10;0.10;;;17.70;99.90;;;;;;5052951;28;20027;-75
2021/07/17 04:25:31;;;;;;;0.03;0.03;;;17.80;99.90;;;;;;5054280;28;20032;-76
2021/07/17 04:27:57;;;;;;;0.22;0.22;;;17.70;99.90;;;;;;5054195;28;20021;-76
2021/07/17 04:30:22;;;;;;;0.20;0.20;;;17.60;99.90;;;;;;5054035;28;20032;-75
2021/07/17 04:32:48;;;;;;;0.45;0.45;;;17.50;99.90;;;;;;5053901;28;20032;-76
2021/07/17 04:35:14;;;;;;;0.00;0.00;;;17.50;99.90;;;;;;5052830;28;20362;-76
2021/07/17 04:37:40;;;;;;;0.10;0.10;;;17.50;99.90;;;;;;5054112;28;20334;-75
2021/07/17 04:40:06;;;;;;;1.30;1.08;;;17.50;99.90;;;;;;5035763;28;20036;-75
2021/07/17 04:42:32;;;;;;;0.00;0.00;;;17.60;99.90;;;;;;5035802;28;20029;-75
2021/07/17 04:44:58;;;;;;;1.05;0.60;;;17.70;99.90;;;;;;5053930;28;20473;-75
2021/07/17 04:47:24;;;;;;;0.00;0.00;;;17.70;99.90;;;;;;5052900;28;20038;-75
2021/07/17 04:49:50;;;;;;;0.50;0.50;;;17.70;99.90;;;;;;5052367;28;20025;-75
2021/07/17 04:52:15;;;;;;;0.00;0.00;;;17.70;99.90;;;;;;5053423;28;20035;-76
2021/07/17 04:54:41;;;;;;;0.60;0.60;;;17.70;99.90;;;;;;5052229;28;20067;-75
2021/07/17 04:57:07;;;;;;;0.00;0.00;;;17.70;99.90;;;;;;5053654;28;20032;-75
2021/07/17 04:59:33;;;;;;;0.00;0.00;;;17.70;99.90;;;;;;5053684;28;20025;-75
2021/07/17 05:01:58;;;;;;;0.00;0.00;;;17.70;99.90;;;;;;5035562;28;20052;-75
2021/07/17 05:04:24;;;;;;;0.00;0.00;;;17.70;99.90;;;;;;5052119;28;20091;-75
2021/07/17 05:06:50;;;;;;;0.00;0.00;;;17.80;99.90;;;;;;5052334;28;20411;-76
2021/07/17 05:09:15;;;;;;;0.00;0.00;;;17.90;99.90;;;;;;5053407;28;20435;-75
2021/07/17 05:11:41;;;;;;;0.00;0.00;;;17.90;99.90;;;;;;5053018;28;20021;-76
2021/07/17 05:14:07;;;;;;;0.00;0.00;;;17.90;99.90;;;;;;5051604;28;20465;-75
2021/07/17 05:16:33;;;;;;;1.17;0.65;;;18.00;99.90;;;;;;5051656;28;20021;-75
2021/07/17 05:18:59;;;;;;;0.10;0.10;;;18.00;99.90;;;;;;5053149;28;20021;-75
2021/07/17 05:21:24;;;;;;;0.35;0.28;;;18.00;99.90;;;;;;5051913;28;20029;-75
2021/07/17 05:23:50;;;;;;;0.20;0.20;;;18.10;99.90;;;;;;5053103;28;20032;-76
2021/07/17 05:26:16;;;;;;;0.15;0.15;;;18.10;99.90;;;;;;5053053;28;20056;-76
2021/07/17 05:28:42;;;;;;;0.10;0.10;;;18.00;99.90;;;;;;5035151;28;20028;-76
2021/07/17 05:31:07;;;;;;;0.17;0.17;;;18.00;99.90;;;;;;5051468;28;20112;-75
2021/07/17 05:33:33;;;;;;;0.00;0.00;;;17.90;99.90;;;;;;5035184;28;20257;-75
2021/07/17 05:35:59;;;;;;;0.00;0.00;;;18.00;99.90;;;;;;5053030;28;20049;-76
2021/07/17 05:38:25;;;;;;;0.00;0.00;;;18.00;99.90;;;;;;5051285;28;20021;-76
2021/07/17 05:40:50;;;;;;;0.00;0.00;;;18.10;99.90;;;;;;5052571;28;20100;-75
2021/07/17 05:43:16;;;;;;;0.00;0.00;;;18.00;99.90;;;;;;5052813;28;20082;-76
2021/07/17 05:45:42;;;;;;;0.10;0.10;;;18.10;99.90;;;;;;5051447;28;20435;-77
2021/07/17 05:48:08;;;;;;;0.30;0.30;;;18.10;99.90;;;;;;5052667;28;20027;-76
2021/07/17 05:50:33;;;;;;;0.00;0.00;;;18.20;99.90;;;;;;5034800;28;20059;-76
2021/07/17 05:53:05;;;;;;;0.00;0.00;;;18.20;99.90;;;;;;5052332;28;20116;-75
2021/07/17 05:55:31;;;;;;;0.50;0.40;;;18.20;99.90;;;;;;5051359;28;20017;-76
2021/07/17 05:57:57;;;;;;;0.25;0.25;;;18.30;99.90;;;;;;5052841;28;20119;-75
2021/07/17 06:00:23;;;;;;;4.97;0.73;;;18.30;99.90;;;;;;5051129;28;20048;-75
2021/07/17 06:02:48;;;;;;;0.00;0.00;;;18.20;99.90;;;;;;5051094;28;20507;-76
2021/07/17 06:05:14;;;;;;;6.32;1.95;;;18.20;99.90;;;;;;5052285;28;20032;-76
2021/07/17 06:07:40;;;;;;;0.00;0.00;;;18.20;99.90;;;;;;5051050;28;20504;-75
2021/07/17 06:10:08;;;;;;;0.10;0.10;;;18.10;99.90;;;;;;5051069;28;20029;-75
2021/07/17 06:12:33;;;;;;;1.05;0.82;;;18.10;99.90;;;;;;5052063;28;20029;-75
2021/07/17 06:14:59;;;;;;;0.30;0.30;;;18.00;99.90;;;;;;5034273;28;20025;-76
2021/07/17 06:17:25;;;;;;;0.00;0.00;;;18.00;99.90;;;;;;5050972;28;20086;-75
2021/07/17 06:19:51;;;;;;;0.00;0.00;;;18.00;99.90;;;;;;5052097;28;20022;-75
2021/07/17 06:22:16;;;;;;;0.03;0.03;;;18.00;99.90;;;;;;5051357;28;20032;-75
2021/07/17 06:24:42;;;;;;;1.65;1.55;;;18.00;99.90;;;;;;5029473;28;20104;-75
2021/07/17 06:27:09;;;;;;;18.52;0.80;;;18.00;99.90;;;;;;5051652;28;20039;-75
2021/07/17 06:29:35;;;;;;;5.15;2.50;;;18.00;99.90;;;;;;5051890;28;20024;-76
2021/07/17 06:32:05;;;;;;;0.38;0.38;;;18.00;99.90;;;;;;5056052;28;20112;-75
2021/07/17 06:34:31;;;;;;;0.00;0.00;;;18.00;99.90;;;;;;5046252;28;20120;-76
2021/07/17 06:36:57;;;;;;;4.88;2.40;;;18.20;99.90;;;;;;5033537;28;20485;-76
2021/07/17 06:39:23;;;;;;;0.00;0.00;;;18.30;99.90;;;;;;5033676;28;20056;-74
2021/07/17 06:41:48;;;;;;;1.88;0.95;;;18.30;99.90;;;;;;5050354;28;20075;-75
2021/07/17 06:44:14;;;;;;;0.00;0.00;;;18.40;99.90;;;;;;5051871;28;20028;-75
2021/07/17 06:46:40;;;;;;;0.88;0.88;;;18.40;99.90;;;;;;5051687;28;20477;-76
2021/07/17 06:49:06;;;;;;;0.55;0.43;;;18.40;99.90;;;;;;5033834;28;20037;-75
2021/07/17 06:51:32;;;;;;;1.85;1.75;;;18.30;99.90;;;;;;5050748;28;20033;-75
2021/07/17 06:53:58;;;;;;;1.55;1.27;;;18.30;99.90;;;;;;5033700;28;20023;-75
2021/07/17 06:56:24;;;;;;;0.00;0.00;;;18.40;99.90;;;;;;5055921;28;20476;-75
2021/07/17 06:58:50;;;;;;;1.58;1.48;;;18.40;99.90;;;;;;5053632;28;20059;-76
2021/07/17 07:01:17;;;;;;;0.17;0.17;;;18.40;99.90;;;;;;5070063;28;20484;-75
2021/07/17 07:03:43;;;;;;;34.50;5.25;;;18.40;99.90;;;;;;5063997;28;20496;-75
2021/07/17 07:06:09;;;;;;;0.10;0.10;;;18.20;99.90;;;;;;5051431;28;20103;-75
2021/07/17 07:08:35;;;;;;;0.00;0.00;;;18.20;99.90;;;;;;5045000;28;20110;-75
2021/07/17 07:11:01;;;;;;;0.20;0.20;;;18.40;99.90;;;;;;5052157;28;20416;-76
2021/07/17 07:13:26;;;;;;;0.10;0.10;;;18.50;99.90;;;;;;5065644;28;20021;-75
2021/07/17 07:15:53;;;;;;;1.88;0.22;;;18.60;99.90;;;;;;5071346;28;20053;-75
2021/07/17 07:18:19;;;;;;;0.00;0.00;;;18.60;99.90;;;;;;5071427;28;20075;-75
2021/07/17 07:20:45;;;;;;;2.65;0.80;;;18.50;99.90;;;;;;5069910;28;20542;-76
2021/07/17 07:23:11;;;;;;;0.00;0.00;;;18.50;99.90;;;;;;5054691;28;20029;-75
2021/07/17 07:25:37;;;;;;;8.13;1.50;;;18.50;99.90;;;;;;5029365;28;20033;-74
2021/07/17 07:28:03;;;;;;;2.50;1.88;;;18.50;99.90;;;;;;5031285;28;20389;-76
2021/07/17 07:30:29;;;;;;;1.15;0.80;;;18.50;99.90;;;;;;5063994;28;20025;-76
2021/07/17 07:32:55;;;;;;;7.72;4.78;;;18.50;99.90;;;;;;5053161;28;20090;-75
2021/07/17 07:35:23;;;;;;;0.13;0.13;;;18.60;99.90;;;;;;5071449;28;20042;-75
2021/07/17 07:37:50;;;;;;;0.10;0.10;;;18.60;99.90;;;;;;5071830;28;20025;-75
2021/07/17 07:40:17;;;;;;;0.55;0.35;;;18.50;99.90;;;;;;5075183;28;20032;-75
2021/07/17 07:42:43;;;;;;;0.30;0.30;;;18.60;99.90;;;;;;5074740;28;20024;-75
2021/07/17 07:45:09;;;;;;;0.30;0.30;;;18.50;99.90;;;;;;5075190;28;20372;-75
2021/07/17 07:47:35;;;;;;;0.57;0.57;;;18.40;99.90;;;;;;5073618;28;20043;-75
2021/07/17 07:50:01;;;;;;;0.00;0.00;;;18.30;99.90;;;;;;5073629;28;20484;-75
2021/07/17 07:52:27;;;;;;;2.88;2.35;;;18.30;99.90;;;;;;5073207;28;20572;-75
2021/07/17 07:54:53;;;;;;;5.78;0.63;;;18.40;99.90;;;;;;5056767;28;20051;-75
2021/07/17 07:57:19;;;;;;;0.35;0.35;;;18.40;99.90;;;;;;5074603;28;20032;-75
2021/07/17 07:59:45;;;;;;;0.00;0.00;;;18.40;99.90;;;;;;5074615;28;20472;-75
2021/07/17 08:02:11;;;;;;;0.43;0.43;;;18.50;99.90;;;;;;5072916;28;20068;-75
2021/07/17 08:04:36;;;;;;;2.25;1.50;;;18.50;99.90;;;;;;5074414;28;20468;-76
2021/07/17 08:07:03;;;;;;;1.05;1.05;;;18.40;99.90;;;;;;5073408;28;20511;-76
2021/07/17 08:09:29;;;;;;;0.00;0.00;;;18.40;99.90;;;;;;5073418;28;20434;-76
2021/07/17 08:11:54;;;;;;;0.43;0.43;;;18.50;99.90;;;;;;5074205;28;20059;-76
2021/07/17 08:14:21;;;;;;;0.10;0.10;;;18.50;99.90;;;;;;5073186;28;20044;-75
2021/07/17 08:16:47;;;;;;;0.90;0.85;;;18.50;99.90;;;;;;5056613;28;20102;-75
2021/07/17 08:19:13;;;;;;;3.20;1.58;;;18.40;99.90;;;;;;5072992;28;20021;-76
2021/07/17 08:21:38;;;;;;;0.00;0.00;;;18.40;99.90;;;;;;5072789;28;20025;-75
2021/07/17 08:24:06;;;;;;;11.60;5.93;;;18.50;99.90;;;;;;5074628;28;20074;-75
2021/07/17 08:26:32;;;;;;;13.90;5.25;;;18.50;99.90;;;;;;5072880;28;20028;-75
2021/07/17 08:28:58;;;;;;;0.00;0.00;;;18.40;99.90;;;;;;5061985;28;20037;-75
2021/07/17 08:31:24;;;;;;;3.35;1.10;;;18.30;99.90;;;;;;5055356;28;20534;-75
2021/07/17 08:33:50;;;;;;;2.17;1.40;;;18.30;99.90;;;;;;5070498;28;20082;-75
2021/07/17 08:36:17;;;;;;;2.92;1.27;;;18.30;99.90;;;;;;5050250;28;20083;-75
2021/07/17 08:38:44;;;;;;;2.72;2.53;;;18.30;99.90;;;;;;5066863;28;20017;-75
2021/07/17 08:41:10;;;;;;;0.00;0.00;;;18.30;99.90;;;;;;5053411;28;20504;-74
2021/07/17 08:43:38;;;;;;;6.40;1.60;;;18.30;99.90;;;;;;5064262;28;20028;-75
2021/07/17 08:46:04;;;;;;;0.85;0.85;;;18.30;99.90;;;;;;5072555;28;20107;-75
2021/07/17 08:48:33;;;;;;;0.17;0.17;;;18.30;99.90;;;;;;5073816;28;20494;-76
2021/07/17 08:51:01;;;;;;;0.00;0.00;;;18.40;99.90;;;;;;5069658;28;20039;-77
2021/07/17 08:53:27;;;;;;;0.00;0.00;;;18.40;99.90;;;;;;5052310;28;20090;-76
2021/07/17 08:55:56;;;;;;;0.30;0.30;;;18.50;99.90;;;;;;5053540;28;20025;-76
2021/07/17 08:58:22;;;;;;;1.20;0.70;;;18.50;99.90;;;;;;5053550;28;20083;-76
2021/07/17 09:00:48;;;;;;;1.38;1.27;;;18.40;99.90;;;;;;5051828;28;20017;-76
2021/07/17 09:03:18;;;;;;;3.10;2.80;;;18.40;99.90;;;;;;5066501;28;20472;-76
2021/07/17 09:05:48;;;;;;;1.27;0.30;;;18.20;99.90;;;;;;5071871;28;20067;-76
2021/07/17 09:08:17;;;;;;;4.85;2.28;;;18.20;99.90;;;;;;5073111;28;20020;-76
2021/07/17 09:10:53;;;;;;;1.27;1.27;;;18.20;99.90;;;;;;5071781;28;20071;-76
2021/07/17 09:13:25;;;;;;;5.47;1.75;;;18.30;99.90;;;;;;5072020;28;20032;-76
2021/07/17 09:15:50;;;;;;;2.47;1.65;;;18.30;99.90;;;;;;5071958;28;20074;-76
2021/07/17 09:18:28;;;;;;;0.00;0.00;;;18.30;99.90;;;;;;5072026;28;20341;-76
2021/07/17 09:21:04;;;;;;;4.05;2.83;;;18.20;99.90;;;;;;5071619;28;20024;-76
2021/07/17 09:23:33;;;;;;;0.00;0.00;;;18.20;99.90;;;;;;5054863;28;20483;-76
2021/07/17 09:26:06;;;;;;;0.30;0.30;;;18.30;99.90;;;;;;5071619;28;20025;-75
2021/07/17 09:28:32;;;;;;;3.20;2.35;;;18.40;99.90;;;;;;5063444;28;20027;-75
2021/07/17 09:31:00;;;;;;;5.65;2.05;;;18.40;99.90;;;;;;5067824;28;20091;-76
2021/07/17 09:33:27;;;;;;;4.03;1.90;;;18.40;99.90;;;;;;5053193;28;20384;-75
2021/07/17 09:35:56;;;;;;;0.10;0.10;;;18.50;99.90;;;;;;5054363;28;20567;-75
2021/07/17 09:38:23;;;;;;;0.60;0.60;;;18.50;99.90;;;;;;5058474;28;20591;-74
2021/07/17 09:40:51;;;;;;;1.75;1.65;;;18.50;99.90;;;;;;5052470;28;20013;-75
2021/07/17 09:43:38;;;;;;;5.03;3.45;;;18.60;99.90;;;;;;5034693;28;20028;-75
2021/07/17 09:46:27;;;;;;;0.30;0.30;;;18.60;99.90;;;;;;5052503;28;20021;-75
2021/07/17 09:48:55;;;;;;;0.00;0.00;;;18.70;99.90;;;;;;5051169;28;20372;-74
2021/07/17 09:51:30;;;;;;;3.45;2.92;;;18.80;99.90;;;;;;5050686;28;20032;-74
2021/07/17 09:53:59;;;;;;;1.42;0.65;;;18.80;99.90;;;;;;5050767;28;20539;-74
2021/07/17 09:56:31;;;;;;;1.08;1.08;;;18.70;99.90;;;;;;5034425;28;20021;-75
2021/07/17 09:59:02;;;;;;;4.57;3.20;;;18.60;99.90;;;;;;5050705;28;20021;-75
2021/07/17 10:01:31;;;;;;;0.63;0.63;;;18.70;99.90;;;;;;5050164;28;20262;-75
2021/07/17 10:04:01;;;;;;;0.90;0.90;;;18.70;99.90;;;;;;5052337;28;20036;-76
2021/07/17 10:06:40;;;;;;;2.05;0.95;;;18.80;99.90;;;;;;5034130;28;20067;-75
2021/07/17 10:09:33;;;;;;;0.08;0.08;;;18.80;99.90;;;;;;5050963;28;20029;-75
2021/07/17 10:12:04;;;;;;;2.85;2.33;;;18.90;99.90;;;;;;5048798;28;20397;-76
2021/07/17 10:14:38;;;;;;;6.68;0.90;;;18.80;99.90;;;;;;5050808;28;20021;-75
2021/07/17 10:17:17;;;;;;;1.45;0.68;;;18.80;99.90;;;;;;5034181;28;20175;-74
2021/07/17 10:19:43;;;;;;;8.60;3.00;;;18.80;99.90;;;;;;5050674;28;20124;-74
2021/07/17 10:22:11;;;;;;;23.20;4.00;;;18.70;99.90;;;;;;5053305;28;20039;-73
2021/07/17 10:24:38;;;;;;;0.00;0.00;;;18.60;99.90;;;;;;5060661;28;20362;-75
2021/07/17 10:27:05;;;;;;;6.15;3.00;;;18.70;99.90;;;;;;5050694;28;20388;-74
2021/07/17 10:29:31;;;;;;;4.57;2.95;;;18.70;99.90;;;;;;5050775;28;20021;-76
2021/07/17 10:31:59;;;;;;;6.45;3.83;;;18.70;99.90;;;;;;5051913;28;20032;-74
2021/07/17 10:34:25;;;;;;;5.65;4.90;;;18.70;99.90;;;;;;5050315;28;20013;-75
2021/07/17 10:37:10;;;;;;;7.47;3.03;;;18.70;99.90;;;;;;5042953;28;20534;-76
2021/07/17 10:39:42;;;;;;;1.25;1.15;;;18.80;99.90;;;;;;5031066;28;20026;-75
2021/07/17 10:42:18;;;;;;;5.95;3.47;;;18.90;99.90;;;;;;5030611;28;20511;-77
2021/07/17 10:44:45;;;;;;;2.17;1.98;;;18.90;99.90;;;;;;5049168;28;20033;-76
2021/07/17 10:47:15;;;;;;;1.65;1.55;;;19.00;99.90;;;;;;5051066;28;20040;-75
2021/07/17 10:49:45;;;;;;;1.50;1.45;;;19.10;99.90;;;;;;5052222;28;20047;-79
2021/07/17 10:52:12;;;;;;;3.40;2.03;;;19.20;99.90;;;;;;5051676;28;20063;-75
2021/07/17 10:54:38;;;;;;;1.35;0.90;;;19.20;99.90;;;;;;5050688;28;20029;-76
2021/07/17 10:57:05;;;;;;;4.18;3.05;;;19.30;99.90;;;;;;5049766;28;20060;-75
2021/07/17 10:59:31;;;;;;;10.85;6.07;;;19.40;99.90;;;;;;5047992;28;20013;-78
2021/07/17 11:01:57;;;;;;;0.25;0.10;;;19.40;99.90;;;;;;5048115;28;20605;-76
2021/07/17 11:04:47;;;;;;;1.10;1.00;;;19.60;99.90;;;;;;5047990;28;20021;-75
2021/07/17 11:07:16;;;;;;;6.28;2.08;;;19.90;99.90;;;;;;5043177;28;20040;-75
2021/07/17 11:10:10;;;;;;;7.28;3.92;;;20.30;99.90;;;;;;5050194;28;20029;-76
2021/07/17 11:12:50;;;;;;;0.00;0.00;;;20.50;99.90;;;;;;5043379;28;20040;-75
2021/07/17 11:15:19;;;;;;;9.18;2.83;;;20.40;99.90;;;;;;5055511;28;20017;-73
2021/07/17 11:17:54;;;;;;;5.57;4.20;;;20.40;99.90;;;;;;5055541;28;20024;-73
2021/07/17 11:20:20;;;;;;;13.07;6.93;;;20.30;99.90;;;;;;5054159;28;20021;-73
2021/07/17 11:22:58;;;;;;;8.50;3.70;;;20.20;99.90;;;;;;5055160;28;20033;-74
2021/07/17 11:25:24;;;;;;;4.20;2.17;;;19.90;99.90;;;;;;5055275;28;20488;-74
2021/07/17 11:27:49;;;;;;;0.10;0.10;;;19.80;99.90;;;;;;5055261;28;20078;-73
2021/07/17 11:30:17;;;;;;;1.13;1.13;;;19.70;99.90;;;;;;5037352;28;20075;-73
2021/07/17 11:33:05;;;;;;;1.20;0.63;;;19.60;99.90;;;;;;5054966;28;20073;-74
2021/07/17 11:35:38;;;;;;;2.08;1.17;;;19.50;99.90;;;;;;5055205;28;20044;-73
2021/07/17 11:38:06;;;;;;;0.00;0.00;;;19.50;99.90;;;;;;5055149;28;20060;-73
2021/07/17 11:40:33;;;;;;;3.40;0.95;;;19.60;99.90;;;;;;5054749;28;20089;-73
2021/07/17 11:43:03;;;;;;;1.17;0.82;;;19.50;99.90;;;;;;5053950;28;20067;-74
2021/07/17 11:45:29;;;;;;;4.85;1.20;;;19.60;99.90;;;;;;5054121;28;20045;-74
2021/07/17 11:48:04;;;;;;;1.55;1.52;;;19.60;99.90;;;;;;5054997;28;20058;-73
2021/07/17 11:50:30;;;;;;;0.10;0.10;;;19.50;99.90;;;;;;5053502;28;20384;-73
2021/07/17 11:52:57;;;;;;;10.52;3.80;;;19.50;99.90;;;;;;5054559;28;20104;-73
2021/07/17 11:55:22;;;;;;;3.13;1.55;;;19.40;99.90;;;;;;5036780;28;20043;-73
2021/07/17 11:57:49;;;;;;;3.67;2.03;;;19.40;99.90;;;;;;5054755;28;20025;-74
2021/07/17 12:00:21;;;;;;;1.08;1.05;;;19.30;99.90;;;;;;5054466;28;20553;-73
2021/07/17 12:03:05;;;;;;;17.85;6.63;;;19.30;99.90;;;;;;5054512;28;20031;-73
2021/07/17 12:05:30;;;;;;;0.90;0.85;;;19.10;99.90;;;;;;5054562;28;20029;-74
2021/07/17 12:07:57;;;;;;;30.45;4.47;;;19.00;99.90;;;;;;5054307;28;20025;-74
2021/07/17 12:10:25;;;;;;;1.42;1.33;;;18.80;99.90;;;;;;5054794;28;20412;-73
2021/07/17 12:12:52;;;;;;;1.90;1.58;;;18.80;99.90;;;;;;5036517;28;20547;-73
2021/07/17 12:15:22;;;;;;;4.97;2.13;;;18.80;99.90;;;;;;5064584;22;20049;-89
2021/07/17 12:17:47;;;;;;;2.25;1.95;;;18.80;99.90;;;;;;4997565;28;20394;-89
2021/07/17 12:20:20;;;;;;;0.28;0.28;;;18.70;99.90;;;;;;4999039;28;20022;-89
2021/07/17 12:22:59;;;;;;;0.00;0.00;;;18.60;99.90;;;;;;4997600;28;20049;-89
2021/07/17 12:25:31;;;;;;;2.10;1.33;;;18.70;99.90;;;;;;4997429;28;20071;-89
2021/07/17 12:28:06;;;;;;;1.35;0.90;;;18.70;99.90;;;;;;4997266;28;20403;-89
2021/07/17 12:30:38;;;;;;;0.47;0.47;;;18.60;99.90;;;;;;4998432;28;20026;-89
2021/07/17 12:33:12;;;;;;;10.23;5.88;;;18.60;99.90;;;;;;4997876;28;20087;-89
2021/07/17 12:35:38;;;;;;;0.38;0.38;;;18.60;99.90;;;;;;4997989;28;20394;-89
2021/07/17 12:38:20;;;;;;;0.28;0.28;;;18.70;99.90;;;;;;4998972;28;20029;-90
2021/07/17 12:40:54;;;;;;;1.75;1.02;;;18.80;99.90;;;;;;4998250;28;20025;-90
2021/07/17 12:43:25;;;;;;;1.02;0.88;;;18.80;99.90;;;;;;4997677;28;20030;-88
2021/07/17 12:45:58;;;;;;;1.25;1.17;;;18.90;99.90;;;;;;4997960;28;20076;-89
2021/07/17 12:48:25;;;;;;;4.85;2.85;;;18.90;99.90;;;;;;4997563;28;20030;-89